Logo AVAMET
Benvolgut visitant, si us plau, ingressa Recuperar contrasenya
AVAMET paisatges

Inforatge Alcalà de Xivert Alcossebre

Dades diàries. Acumulats / Últims 30 dies disponibles

Data Temperatura (°C) Humitat rel. (%) Pressió rel. (hPa) Vent (km/h) Precipitació
Mínima Mitjana Màxima Amplitud
tèrmica
Mínima Mitjana Màxima Mínima Mitjana Màxima Predom. Mitjana Ràfega
màxima
Total
(mm)
Índex-n
Mínima Mitjana Màxima Mínima Mitjana Màxima n
0 a 1
P0 max
mm 5'
Dades mensuals acumulades fins l'últim dia disponible
07/2020 20,8 22,4 23,9 25,9 28,7 29,1 29,4 8,6 71 80 92 1.012 1.014 1.017   4,2 30,6 11,4
Dades anuals acumulades fins l'últim dia disponible
2020 1,4 11,4 23,9 15,9 10,7 20,0 29,6 28,2 25 77 98 996 1.020 1.036   4,7 78,9 446,0
Últims 30 dies disponibles
02-07-2020 23,9     26,2     28,7 4,8 72 80 89 1.014 1.015 1.017 ENE 5,5 30,6 11,4
01-07-2020 20,8     25,6     29,4 8,6 71 81 92 1.012 1.013 1.015 SSE 2,9 16,1 0,0
30-06-2020 20,7     25,4     28,6 7,9 72 81 93 1.014 1.016 1.018 S 3,0 16,1 0,0
29-06-2020 20,1     24,8     28,5 8,4 72 83 93 1.017 1.018 1.019 E 3,4 17,7 0,0
28-06-2020 19,1     24,8     28,6 9,5 71 81 91 1.018 1.019 1.020 E 2,6 14,5 0,0
27-06-2020 19,8     24,7     28,6 8,8 67 78 89 1.015 1.017 1.018 E 3,1 16,1 0,0
26-06-2020 18,0     24,2     29,3 11,3 56 70 85 1.014 1.017 1.018 E 2,3 12,9 0,0
25-06-2020 17,9     24,3     29,6 11,7 46 73 87 1.017 1.018 1.020 E 3,4 16,1 0,0
24-06-2020 18,3     23,4     27,3 9,0 71 82 94 1.018 1.019 1.021 E 2,6 19,3 0,0
23-06-2020 19,5     23,7     26,8 7,3 70 79 88 1.018 1.020 1.022 SSE 5,1 20,9 0,0
22-06-2020 20,7     24,6     28,6 7,9 38 76 91 1.021 1.023 1.024 SSE 5,3 30,6 0,0
21-06-2020 19,3     23,3     26,8 7,5 67 84 95 1.021 1.023 1.024 E 3,4 16,1 0,0
20-06-2020 17,9     22,2     25,3 7,4 79 87 95 1.021 1.022 1.023 E 3,7 20,9 0,0
19-06-2020 17,4     21,2     24,1 6,7 76 84 92 1.019 1.020 1.023 E 3,1 20,9 0,0
18-06-2020 16,3     20,2     23,4 7,1 69 80 89 1.015 1.017 1.019 ENE 4,7 30,6 0,0
17-06-2020 16,8     20,5     23,3 6,5 62 71 92 1.016 1.017 1.019 E 3,9 24,1 0,8
16-06-2020 17,8     20,7     24,2 6,4 70 81 90 1.017 1.019 1.020 ENE 4,5 37,0 12,0 0,55 2,40
15-06-2020 16,8     21,3     24,2 7,4 70 81 91 1.019 1.021 1.022 E 5,1 25,7 0,0
14-06-2020 14,9     20,4     24,2 9,3 65 78 85 1.018 1.019 1.020 ENE 4,5 29,0 0,0
13-06-2020 15,1     21,9     26,2 11,1 39 61 84 1.009 1.014 1.019 SSE 4,7 30,6 0,0
12-06-2020 16,0     22,2     26,8 10,8 38 66 92 1.003 1.005 1.009 SSW 10,9 51,5 0,0
11-06-2020 17,6     21,8     26,3 8,7 60 74 87 1.003 1.008 1.016 W 4,5 30,6 0,0
10-06-2020 15,9     20,4     22,9 7,0 48 59 78 1.015 1.017 1.020 NW 8,4 40,2 0,0
09-06-2020 14,4     19,7     23,9 9,5 39 59 77 1.017 1.018 1.020 NW 7,4 35,4 0,0
08-06-2020 15,6     18,8     22,0 6,4 43 61 81 1.012 1.015 1.018 NW 11,7 48,3 0,0
07-06-2020 16,7     20,2     24,2 7,5 62 82 93 1.007 1.010 1.014 ENE 4,0 32,2 12,2 0,32 2,20
06-06-2020 15,2     20,8     24,6 9,4 70 80 90 1.007 1.010 1.013 E 3,5 20,9 0,0
05-06-2020 16,4     21,4     25,7 9,3 40 58 80 1.009 1.011 1.014 SSE 8,2 41,8 0,0
04-06-2020 15,8     18,6     21,2 5,4 69 82 90 1.004 1.006 1.009 W 3,2 38,6 10,4 0,47 1,50
03-06-2020 16,6     21,9     25,6 9,0 65 81 94 1.005 1.010 1.015 E 4,2 33,8 0,0
Últims 13 mesos disponibles
06/2020 14,4 17,4 20,7 22,0 21,2 25,7 29,6 15,2 58 76 87 1.005 1.016 1.023 E 4,6 51,5 35,4
05/2020 11,6 14,9 17,7 20,0 18,1 23,9 28,0 16,4 63 77 88 1.006 1.018 1.030 E 4,1 46,7 56,2
04/2020 5,7 11,5 15,2 15,3 15,1 18,9 25,9 20,2 64 82 90 1.006 1.017 1.028 E 4,3 59,5 106,4
03/2020 5,3 9,2 13,9 13,6 11,5 17,3 24,3 19,0 47 73 91 1.006 1.018 1.029 E 7,1 78,9 106,0
02/2020 5,1 8,4 12,3 13,5 15,1 18,5 25,6 20,5 48 75 88 1.013 1.027 1.034 E 3,8 67,6 0,6
01/2020 1,4 6,4 11,6 10,6 10,7 15,0 20,3 18,9 65 81 95 1.020 1.027 1.034 E 4,1 78,9 130,0
12/2019 6,1 9,4 15,9 13,4 12,9 17,5 25,7 19,6 45 75 92 1.002 1.020 1.034 W 4,4 74,0 79,0
11/2019 4,6 9,8 16,3 14,7 15,1 19,3 25,6 21,0 44 60 86 997 1.011 1.019 NW 6,5 82,1 5,6
10/2019 11,2 15,4 21,2 19,8 19,4 24,1 28,8 17,6 46 74 88 1.007 1.018 1.023 SSO 4,1 70,8 33,2
09/2019 14,3 19,4 22,8 23,2 23,9 26,6 27,9 13,6 48 75 87 1.011 1.019 1.027 SSE 5,3 72,2 52,4
Tots els anys disponibles
Temperatura (°C)
Humitat relativa (%)
Velocitat del vent i ràfega màxima (km/h)
Direcció del vent (°)
Pressió (hPa)
Precipitació (mm)
Nota sobre les dades: s'avisa a l'usuari de la provisionalitat i no oficialitat d'aquestes dades
Logo AVAMET blanc
Web allotjada a Sollutia
Llicència de Creative CommonsLa web d'AVAMET i els seus continguts estan subjectes a una llicència de
Reconeixement - No Comercial - Compartir igual
Últimes estacions: la Vilavella - Ptda Forns (Soci), Miramar - Platja (Inforatge), San Fulgencio - Centre & San Fulgencio - Urb. La Marina (MeteOrihuela), Ontinyent - els Gínjols (Soci), Orba (Ajuntament Soci), Xixona - Monnegre de Baix (Soci), Benifairó de la Valldigna - Cambro/Pator (Soci) - - -